Wilmington, OH

2:54 PM EDT on August 03, 2015 (GMT -0400)
Little House On The Prairie | | Change Station
CLOSE
Current Station
Personal Weather Station
Location: Wilmington, OH
Elevation: 1043 ft
Nearby Weather Stations

Elev 1043 ft 39.45 °N, 83.82 °W | Updated 2 seconds ago

Partly Cloudy
Partly Cloudy
84.7 °F
Feels Like 89 °F
N
6.3
Wind Variable Wind from ESE
Gusts 6.3 mph

Today
High -- | Low -- °F
--% Chance of Precip.
Yesterday
High -- | Low -- °F
Precip. -- in
6:36 AM 8:45 PM
Waning Gibbous, 85% visible
Pressure 29.84 in
Visibility 10.0 miles
Clouds Few 3300 ft
Heat Index 89 °F
Dew Point 69 °F
Humidity 60%
Rainfall 0.45 in
Snow Depth Not available.
UV 10 out of 12
Pollen 6.30 out of 12
Air Quality Not available.
Flu Activity Not available.
METAR KILN 031754Z AUTO 23016KT 10SM FEW033 27/18 A2987 RMK AO2 SLP104 60000 T02720183 10272 20172 57003

More Conditions Fewer Conditions

Pressure 29.84 in
Visibility 10.0 miles
Clouds Few 3300 ft
Heat Index 89 °F
Dew Point 69 °F
Humidity 60%
Rainfall 0.45 in
Snow Depth Not available.
UV 10 out of 12
Pollen 6.30 out of 12
Air Quality Not available.
Flu Activity Not available.
METAR KILN 031754Z AUTO 23016KT 10SM FEW033 27/18 A2987 RMK AO2 SLP104 60000 T02720183 10272 20172 57003

More Conditions Fewer Conditions

10-Day Weather Forecast

×

Almanac

Astronomy

Aug. 03, 2015 Rise Set
Actual Time
Civil Twilight
Nautical Twilight
Astronomical Twilight
Moon
Length of Visible Light
Length of Day
Tomorrow will be .
, % of the Moon is Illuminated

Today's Extremes

State Highs State Lows

Community

WunderPhotos

Upload Photos

1,843,704 photos uploaded!

WunderBlogs® & News

Nearby

Air Quality

  Air Quality AQ Index Pollutant
Not available.

Snow Depth

Station Depth Elevation

Earthquake Activity

City Distance Mag. Time & Date
Minimum magnitude displayed is 2.5.

Coastal Water Temperatures

Place Temperature

Stations

Nearby Weather Stations

Station Location Temp. Windchill Dew Point Humidity Wind Precip. Elev Updated Type